sensor_id;sensor_type;location;lat;lon;timestamp;pressure;altitude;pressure_sealevel;temperature;humidity
53514;BME280;39768;54.148;12.174;2023-03-24T00:03:18;100114.47;;;13.80;100.00
53514;BME280;39768;54.148;12.174;2023-03-24T00:07:20;100113.06;;;13.95;100.00
53514;BME280;39768;54.148;12.174;2023-03-24T00:11:25;100107.16;;;13.85;100.00
53514;BME280;39768;54.148;12.174;2023-03-24T00:15:27;100101.53;;;14.16;100.00
53514;BME280;39768;54.148;12.174;2023-03-24T00:19:28;100093.44;;;14.19;100.00
53514;BME280;39768;54.148;12.174;2023-03-24T00:23:31;100088.84;;;14.68;100.00
53514;BME280;39768;54.148;12.174;2023-03-24T00:27:32;100090.97;;;14.36;100.00
53514;BME280;39768;54.148;12.174;2023-03-24T00:31:37;100073.94;;;13.70;100.00
53514;BME280;39768;54.148;12.174;2023-03-24T00:35:40;100061.84;;;14.74;100.00
53514;BME280;39768;54.148;12.174;2023-03-24T00:39:45;100054.69;;;14.31;100.00
53514;BME280;39768;54.148;12.174;2023-03-24T00:43:48;100049.75;;;14.43;100.00
53514;BME280;39768;54.148;12.174;2023-03-24T00:47:50;100036.16;;;14.50;100.00
53514;BME280;39768;54.148;12.174;2023-03-24T00:51:54;100032.72;;;14.24;100.00
53514;BME280;39768;54.148;12.174;2023-03-24T00:55:58;100024.34;;;14.33;100.00
53514;BME280;39768;54.148;12.174;2023-03-24T01:00:04;100030.28;;;14.18;100.00
53514;BME280;39768;54.148;12.174;2023-03-24T01:04:14;100019.09;;;14.74;100.00
53514;BME280;39768;54.148;12.174;2023-03-24T01:08:17;100014.41;;;14.59;100.00
53514;BME280;39768;54.148;12.174;2023-03-24T01:12:35;100005.34;;;14.63;100.00
53514;BME280;39768;54.148;12.174;2023-03-24T01:16:40;99999.72;;;14.49;100.00
53514;BME280;39768;54.148;12.174;2023-03-24T01:20:45;99995.72;;;14.59;100.00
53514;BME280;39768;54.148;12.174;2023-03-24T01:24:48;99993.91;;;14.16;100.00
53514;BME280;39768;54.148;12.174;2023-03-24T01:28:50;99978.75;;;15.00;100.00
53514;BME280;39768;54.148;12.174;2023-03-24T01:32:52;99973.53;;;15.17;100.00
53514;BME280;39768;54.148;12.174;2023-03-24T01:36:54;99965.69;;;14.74;100.00
53514;BME280;39768;54.148;12.174;2023-03-24T01:40:55;99958.22;;;14.82;100.00
53514;BME280;39768;54.148;12.174;2023-03-24T01:45:00;99949.09;;;14.86;100.00
53514;BME280;39768;54.148;12.174;2023-03-24T01:49:05;99935.56;;;15.30;100.00
53514;BME280;39768;54.148;12.174;2023-03-24T01:53:08;99929.94;;;14.56;100.00
53514;BME280;39768;54.148;12.174;2023-03-24T01:57:26;99920.88;;;14.60;100.00
53514;BME280;39768;54.148;12.174;2023-03-24T02:01:30;99910.84;;;14.45;100.00
53514;BME280;39768;54.148;12.174;2023-03-24T02:05:52;99911.66;;;14.67;100.00
53514;BME280;39768;54.148;12.174;2023-03-24T02:09:56;99906.56;;;14.41;100.00
53514;BME280;39768;54.148;12.174;2023-03-24T02:13:57;99899.69;;;14.76;100.00
53514;BME280;39768;54.148;12.174;2023-03-24T02:22:39;99884.41;;;14.59;100.00
53514;BME280;39768;54.148;12.174;2023-03-24T02:26:52;99888.88;;;14.59;100.00
53514;BME280;39768;54.148;12.174;2023-03-24T02:43:55;99860.25;;;14.62;100.00
53514;BME280;39768;54.148;12.174;2023-03-24T02:48:18;99843.69;;;14.93;100.00
53514;BME280;39768;54.148;12.174;2023-03-24T03:01:31;99825.94;;;14.11;100.00
53514;BME280;39768;54.148;12.174;2023-03-24T03:06:10;99815.28;;;14.72;100.00
53514;BME280;39768;54.148;12.174;2023-03-24T03:14:24;99803.25;;;15.01;100.00
53514;BME280;39768;54.148;12.174;2023-03-24T03:18:32;99801.09;;;14.70;100.00
53514;BME280;39768;54.148;12.174;2023-03-24T03:22:57;99793.06;;;15.09;100.00
53514;BME280;39768;54.148;12.174;2023-03-24T03:27:03;99785.69;;;15.14;100.00
53514;BME280;39768;54.148;12.174;2023-03-24T03:31:13;99775.44;;;14.67;100.00
53514;BME280;39768;54.148;12.174;2023-03-24T03:35:21;99765.22;;;14.57;100.00
53514;BME280;39768;54.148;12.174;2023-03-24T03:39:28;99770.56;;;14.57;100.00
53514;BME280;39768;54.148;12.174;2023-03-24T03:43:34;99755.44;;;14.95;100.00
53514;BME280;39768;54.148;12.174;2023-03-24T03:47:37;99744.88;;;14.13;100.00
53514;BME280;39768;54.148;12.174;2023-03-24T03:51:38;99727.38;;;14.27;100.00
53514;BME280;39768;54.148;12.174;2023-03-24T03:55:40;99718.97;;;14.75;100.00
53514;BME280;39768;54.148;12.174;2023-03-24T03:59:42;99720.66;;;14.38;100.00
53514;BME280;39768;54.148;12.174;2023-03-24T04:09:02;99703.09;;;14.53;100.00
53514;BME280;39768;54.148;12.174;2023-03-24T04:18:11;99686.03;;;14.93;100.00
53514;BME280;39768;54.148;12.174;2023-03-24T04:27:26;99656.38;;;14.80;100.00
53514;BME280;39768;54.148;12.174;2023-03-24T04:32:41;99648.56;;;14.76;100.00
53514;BME280;39768;54.148;12.174;2023-03-24T04:36:35;99643.47;;;14.53;100.00
53514;BME280;39768;54.148;12.174;2023-03-24T04:41:05;99627.00;;;14.62;100.00
53514;BME280;39768;54.148;12.174;2023-03-24T04:45:09;99621.00;;;14.57;100.00
53514;BME280;39768;54.148;12.174;2023-03-24T04:49:30;99619.38;;;14.15;100.00
53514;BME280;39768;54.148;12.174;2023-03-24T04:53:31;99602.94;;;14.80;100.00
53514;BME280;39768;54.148;12.174;2023-03-24T04:57:33;99595.75;;;14.64;100.00
53514;BME280;39768;54.148;12.174;2023-03-24T05:01:39;99591.75;;;14.72;100.00
53514;BME280;39768;54.148;12.174;2023-03-24T05:06:13;99579.75;;;14.45;100.00
53514;BME280;39768;54.148;12.174;2023-03-24T05:10:14;99562.50;;;14.69;100.00
53514;BME280;39768;54.148;12.174;2023-03-24T05:14:22;99551.72;;;15.07;100.00
53514;BME280;39768;54.148;12.174;2023-03-24T05:18:24;99550.47;;;14.61;100.00
53514;BME280;39768;54.148;12.174;2023-03-24T05:22:26;99548.91;;;14.19;100.00
53514;BME280;39768;54.148;12.174;2023-03-24T05:26:28;99548.97;;;14.36;100.00
53514;BME280;39768;54.148;12.174;2023-03-24T05:30:40;99545.81;;;14.83;100.00
53514;BME280;39768;54.148;12.174;2023-03-24T05:35:03;99538.88;;;14.62;100.00
53514;BME280;39768;54.148;12.174;2023-03-24T05:39:07;99532.84;;;14.93;100.00
53514;BME280;39768;54.148;12.174;2023-03-24T05:43:21;99528.53;;;15.07;100.00
53514;BME280;39768;54.148;12.174;2023-03-24T05:47:31;99527.38;;;15.13;100.00
53514;BME280;39768;54.148;12.174;2023-03-24T05:51:33;99510.94;;;14.69;100.00
53514;BME280;39768;54.148;12.174;2023-03-24T05:55:38;99511.63;;;15.24;100.00
53514;BME280;39768;54.148;12.174;2023-03-24T05:59:56;99502.31;;;15.31;100.00
53514;BME280;39768;54.148;12.174;2023-03-24T06:04:18;99501.53;;;15.29;100.00
53514;BME280;39768;54.148;12.174;2023-03-24T06:08:21;99491.94;;;15.75;100.00
53514;BME280;39768;54.148;12.174;2023-03-24T06:12:23;99492.91;;;14.72;100.00
53514;BME280;39768;54.148;12.174;2023-03-24T06:16:29;99485.22;;;15.51;100.00
53514;BME280;39768;54.148;12.174;2023-03-24T06:20:36;99490.19;;;15.59;100.00
53514;BME280;39768;54.148;12.174;2023-03-24T06:24:41;99480.56;;;15.72;100.00
53514;BME280;39768;54.148;12.174;2023-03-24T06:28:44;99473.88;;;15.63;100.00
53514;BME280;39768;54.148;12.174;2023-03-24T06:32:51;99472.22;;;15.61;100.00
53514;BME280;39768;54.148;12.174;2023-03-24T06:36:53;99473.88;;;15.63;100.00
53514;BME280;39768;54.148;12.174;2023-03-24T06:40:59;99472.84;;;15.33;100.00
53514;BME280;39768;54.148;12.174;2023-03-24T06:45:01;99466.50;;;15.84;100.00
53514;BME280;39768;54.148;12.174;2023-03-24T06:49:03;99458.78;;;15.62;100.00
53514;BME280;39768;54.148;12.174;2023-03-24T06:53:05;99464.31;;;16.22;100.00
53514;BME280;39768;54.148;12.174;2023-03-24T06:57:09;99453.72;;;16.05;100.00
53514;BME280;39768;54.148;12.174;2023-03-24T07:01:29;99447.06;;;16.28;100.00
53514;BME280;39768;54.148;12.174;2023-03-24T07:05:37;99444.22;;;15.83;100.00
53514;BME280;39768;54.148;12.174;2023-03-24T07:09:40;99441.63;;;16.29;100.00
53514;BME280;39768;54.148;12.174;2023-03-24T07:13:41;99440.59;;;15.84;100.00
53514;BME280;39768;54.148;12.174;2023-03-24T07:17:43;99423.00;;;15.96;100.00
53514;BME280;39768;54.148;12.174;2023-03-24T07:21:59;99423.53;;;16.33;100.00
53514;BME280;39768;54.148;12.174;2023-03-24T07:26:16;99424.63;;;15.67;100.00
53514;BME280;39768;54.148;12.174;2023-03-24T07:30:22;99419.81;;;16.35;100.00
53514;BME280;39768;54.148;12.174;2023-03-24T07:34:38;99415.97;;;16.25;100.00
53514;BME280;39768;54.148;12.174;2023-03-24T07:38:39;99420.22;;;15.98;100.00
53514;BME280;39768;54.148;12.174;2023-03-24T07:42:47;99423.59;;;15.85;100.00
53514;BME280;39768;54.148;12.174;2023-03-24T07:47:15;99434.63;;;15.79;100.00
53514;BME280;39768;54.148;12.174;2023-03-24T07:51:17;99441.19;;;15.74;100.00
53514;BME280;39768;54.148;12.174;2023-03-24T07:55:27;99432.66;;;15.99;100.00
53514;BME280;39768;54.148;12.174;2023-03-24T07:59:35;99421.28;;;16.41;100.00
53514;BME280;39768;54.148;12.174;2023-03-24T08:03:45;99429.56;;;16.52;100.00
53514;BME280;39768;54.148;12.174;2023-03-24T08:07:51;99426.84;;;16.22;100.00
53514;BME280;39768;54.148;12.174;2023-03-24T08:11:56;99417.59;;;16.28;100.00
53514;BME280;39768;54.148;12.174;2023-03-24T08:15:59;99416.72;;;16.43;100.00
53514;BME280;39768;54.148;12.174;2023-03-24T08:20:01;99429.06;;;17.05;100.00
53514;BME280;39768;54.148;12.174;2023-03-24T08:24:06;99434.03;;;16.51;100.00
53514;BME280;39768;54.148;12.174;2023-03-24T08:28:07;99427.47;;;16.73;100.00
53514;BME280;39768;54.148;12.174;2023-03-24T08:32:09;99429.56;;;16.82;100.00
53514;BME280;39768;54.148;12.174;2023-03-24T08:36:11;99433.22;;;16.81;100.00
53514;BME280;39768;54.148;12.174;2023-03-24T08:40:15;99432.47;;;16.93;100.00
53514;BME280;39768;54.148;12.174;2023-03-24T08:44:19;99432.47;;;16.93;100.00
53514;BME280;39768;54.148;12.174;2023-03-24T08:48:21;99445.19;;;16.75;100.00
53514;BME280;39768;54.148;12.174;2023-03-24T08:52:23;99440.00;;;16.72;100.00
53514;BME280;39768;54.148;12.174;2023-03-24T08:56:25;99454.53;;;17.26;100.00
53514;BME280;39768;54.148;12.174;2023-03-24T09:00:26;99455.44;;;16.97;100.00
53514;BME280;39768;54.148;12.174;2023-03-24T09:04:29;99462.00;;;17.21;100.00
53514;BME280;39768;54.148;12.174;2023-03-24T09:08:30;99457.22;;;17.41;100.00
53514;BME280;39768;54.148;12.174;2023-03-24T09:12:33;99459.28;;;17.80;100.00
53514;BME280;39768;54.148;12.174;2023-03-24T09:16:34;99476.84;;;17.27;100.00
53514;BME280;39768;54.148;12.174;2023-03-24T09:20:36;99496.59;;;17.26;100.00
53514;BME280;39768;54.148;12.174;2023-03-24T09:24:37;99512.16;;;16.60;100.00
53514;BME280;39768;54.148;12.174;2023-03-24T09:28:39;99514.06;;;17.33;100.00
53514;BME280;39768;54.148;12.174;2023-03-24T09:32:41;99520.47;;;17.31;86.76
53514;BME280;39768;54.148;12.174;2023-03-24T09:36:42;99533.41;;;17.08;81.99
53514;BME280;39768;54.148;12.174;2023-03-24T09:40:53;99536.56;;;17.31;78.38
53514;BME280;39768;54.148;12.174;2023-03-24T09:44:58;99553.09;;;17.81;74.22
53514;BME280;39768;54.148;12.174;2023-03-24T09:49:00;99557.91;;;18.05;71.49
53514;BME280;39768;54.148;12.174;2023-03-24T09:53:06;99579.97;;;18.10;69.98
53514;BME280;39768;54.148;12.174;2023-03-24T09:57:28;99575.84;;;17.76;70.63
53514;BME280;39768;54.148;12.174;2023-03-24T10:01:34;99596.31;;;17.03;68.01
53514;BME280;39768;54.148;12.174;2023-03-24T10:05:41;99606.66;;;17.09;71.64
53514;BME280;39768;54.148;12.174;2023-03-24T10:09:50;99626.34;;;17.69;69.70
53514;BME280;39768;54.148;12.174;2023-03-24T10:14:11;99626.16;;;17.42;73.10
53514;BME280;39768;54.148;12.174;2023-03-24T10:18:33;99624.13;;;17.32;72.24
53514;BME280;39768;54.148;12.174;2023-03-24T10:27:13;99624.34;;;17.87;68.01
53514;BME280;39768;54.148;12.174;2023-03-24T10:31:25;99629.44;;;17.47;66.95
53514;BME280;39768;54.148;12.174;2023-03-24T10:35:32;99636.28;;;17.67;61.83
53514;BME280;39768;54.148;12.174;2023-03-24T10:39:35;99631.69;;;17.39;63.16
53514;BME280;39768;54.148;12.174;2023-03-24T10:43:46;99644.63;;;18.07;64.50
53514;BME280;39768;54.148;12.174;2023-03-24T10:47:49;99660.00;;;17.75;61.78
53514;BME280;39768;54.148;12.174;2023-03-24T10:51:59;99674.34;;;17.44;64.28
53514;BME280;39768;54.148;12.174;2023-03-24T10:56:02;99663.94;;;17.83;61.49
53514;BME280;39768;54.148;12.174;2023-03-24T11:00:08;99654.03;;;17.70;63.98
53514;BME280;39768;54.148;12.174;2023-03-24T11:04:19;99669.69;;;17.77;57.77
53514;BME280;39768;54.148;12.174;2023-03-24T11:12:31;99673.41;;;18.19;58.50
53514;BME280;39768;54.148;12.174;2023-03-24T11:16:37;99687.63;;;17.77;59.45
53514;BME280;39768;54.148;12.174;2023-03-24T11:20:44;99681.75;;;17.24;61.32
53514;BME280;39768;54.148;12.174;2023-03-24T11:24:51;99696.03;;;17.55;62.36
53514;BME280;39768;54.148;12.174;2023-03-24T11:28:57;99689.69;;;18.44;59.08
53514;BME280;39768;54.148;12.174;2023-03-24T11:32:59;99679.56;;;19.05;55.66
53514;BME280;39768;54.148;12.174;2023-03-24T11:37:02;99694.72;;;18.79;56.70
53514;BME280;39768;54.148;12.174;2023-03-24T11:41:18;99696.84;;;17.87;55.80
53514;BME280;39768;54.148;12.174;2023-03-24T11:45:25;99714.94;;;18.42;54.30
53514;BME280;39768;54.148;12.174;2023-03-24T11:49:31;99721.16;;;18.14;55.41
53514;BME280;39768;54.148;12.174;2023-03-24T11:53:41;99714.25;;;17.95;56.51
53514;BME280;39768;54.148;12.174;2023-03-24T11:57:51;99711.75;;;18.07;55.67
53514;BME280;39768;54.148;12.174;2023-03-24T12:02:03;99738.25;;;18.55;57.10
53514;BME280;39768;54.148;12.174;2023-03-24T12:06:43;99739.72;;;18.47;55.45
53514;BME280;39768;54.148;12.174;2023-03-24T12:11:05;99742.50;;;17.87;58.84
53514;BME280;39768;54.148;12.174;2023-03-24T12:19:41;99741.50;;;17.74;54.99
53514;BME280;39768;54.148;12.174;2023-03-24T12:36:58;99745.13;;;18.03;55.39
53514;BME280;39768;54.148;12.174;2023-03-24T12:58:40;99753.50;;;17.82;49.55
53514;BME280;39768;54.148;12.174;2023-03-24T13:03:00;99738.72;;;17.59;48.64
53514;BME280;39768;54.148;12.174;2023-03-24T13:07:09;99749.22;;;17.64;49.36
53514;BME280;39768;54.148;12.174;2023-03-24T13:11:17;99754.75;;;18.21;49.35
53514;BME280;39768;54.148;12.174;2023-03-24T13:15:38;99746.59;;;17.78;50.39
53514;BME280;39768;54.148;12.174;2023-03-24T13:19:41;99755.81;;;17.88;49.46
53514;BME280;39768;54.148;12.174;2023-03-24T13:27:45;99742.38;;;18.18;50.03
53514;BME280;39768;54.148;12.174;2023-03-24T13:31:54;99736.34;;;18.57;49.32
53514;BME280;39768;54.148;12.174;2023-03-24T13:36:07;99754.34;;;18.13;49.36
53514;BME280;39768;54.148;12.174;2023-03-24T13:40:23;99741.25;;;18.37;49.48
53514;BME280;39768;54.148;12.174;2023-03-24T13:44:39;99747.28;;;18.40;48.90
53514;BME280;39768;54.148;12.174;2023-03-24T13:48:44;99761.97;;;18.35;48.22
53514;BME280;39768;54.148;12.174;2023-03-24T13:52:48;99752.28;;;18.32;48.43
53514;BME280;39768;54.148;12.174;2023-03-24T13:57:03;99757.69;;;18.75;46.90
53514;BME280;39768;54.148;12.174;2023-03-24T14:05:28;99754.63;;;18.95;45.81
53514;BME280;39768;54.148;12.174;2023-03-24T14:09:30;99741.81;;;18.42;47.08
53514;BME280;39768;54.148;12.174;2023-03-24T14:13:35;99747.91;;;18.74;45.19
53514;BME280;39768;54.148;12.174;2023-03-24T14:17:41;99742.75;;;18.26;45.22
53514;BME280;39768;54.148;12.174;2023-03-24T14:21:56;99752.56;;;18.56;44.86
53514;BME280;39768;54.148;12.174;2023-03-24T14:25:58;99755.59;;;18.80;43.53
53514;BME280;39768;54.148;12.174;2023-03-24T14:34:17;99761.16;;;18.91;44.84
53514;BME280;39768;54.148;12.174;2023-03-24T14:38:23;99764.47;;;18.23;43.80
53514;BME280;39768;54.148;12.174;2023-03-24T14:46:45;99770.81;;;18.37;44.09
53514;BME280;39768;54.148;12.174;2023-03-24T14:50:49;99755.47;;;17.94;43.86
53514;BME280;39768;54.148;12.174;2023-03-24T14:54:58;99762.69;;;18.95;44.28
53514;BME280;39768;54.148;12.174;2023-03-24T14:59:06;99764.34;;;18.83;44.24
53514;BME280;39768;54.148;12.174;2023-03-24T15:03:16;99762.88;;;18.63;43.85
53514;BME280;39768;54.148;12.174;2023-03-24T15:07:19;99765.88;;;18.15;44.90
53514;BME280;39768;54.148;12.174;2023-03-24T15:11:24;99765.28;;;17.80;45.08
53514;BME280;39768;54.148;12.174;2023-03-24T15:15:27;99776.00;;;17.95;46.10
53514;BME280;39768;54.148;12.174;2023-03-24T15:19:29;99773.09;;;18.28;44.52
53514;BME280;39768;54.148;12.174;2023-03-24T15:23:31;99774.31;;;17.63;46.05
53514;BME280;39768;54.148;12.174;2023-03-24T15:27:33;99782.66;;;17.88;45.67
53514;BME280;39768;54.148;12.174;2023-03-24T15:31:34;99782.81;;;18.01;46.13
53514;BME280;39768;54.148;12.174;2023-03-24T15:35:39;99783.56;;;18.33;46.42
53514;BME280;39768;54.148;12.174;2023-03-24T15:39:41;99782.00;;;17.69;47.19
53514;BME280;39768;54.148;12.174;2023-03-24T15:43:46;99794.22;;;17.75;47.12
53514;BME280;39768;54.148;12.174;2023-03-24T15:47:50;99794.72;;;17.81;47.40
53514;BME280;39768;54.148;12.174;2023-03-24T15:51:59;99794.22;;;17.75;47.32
53514;BME280;39768;54.148;12.174;2023-03-24T15:56:17;99806.59;;;17.46;48.00
53514;BME280;39768;54.148;12.174;2023-03-24T16:00:23;99805.13;;;17.56;46.94
53514;BME280;39768;54.148;12.174;2023-03-24T16:04:27;99809.63;;;17.55;47.50
53514;BME280;39768;54.148;12.174;2023-03-24T16:08:34;99820.06;;;17.13;47.87
53514;BME280;39768;54.148;12.174;2023-03-24T16:12:39;99822.84;;;17.11;46.98
53514;BME280;39768;54.148;12.174;2023-03-24T16:16:40;99818.69;;;16.90;47.42
53514;BME280;39768;54.148;12.174;2023-03-24T16:20:44;99807.81;;;17.40;47.01
53514;BME280;39768;54.148;12.174;2023-03-24T16:24:46;99821.28;;;16.91;47.27
53514;BME280;39768;54.148;12.174;2023-03-24T16:28:48;99820.00;;;17.14;46.69
53514;BME280;39768;54.148;12.174;2023-03-24T16:32:50;99827.69;;;17.05;46.35
53514;BME280;39768;54.148;12.174;2023-03-24T16:36:53;99831.03;;;16.92;46.11
53514;BME280;39768;54.148;12.174;2023-03-24T16:40:55;99837.78;;;16.67;46.88
53514;BME280;39768;54.148;12.174;2023-03-24T16:44:57;99831.84;;;17.10;46.00
53514;BME280;39768;54.148;12.174;2023-03-24T16:49:00;99832.34;;;17.01;46.50
53514;BME280;39768;54.148;12.174;2023-03-24T16:53:02;99829.88;;;17.61;45.03
53514;BME280;39768;54.148;12.174;2023-03-24T16:57:05;99838.31;;;16.90;45.48
53514;BME280;39768;54.148;12.174;2023-03-24T17:01:14;99838.44;;;17.20;46.01
53514;BME280;39768;54.148;12.174;2023-03-24T17:05:31;99829.72;;;17.33;45.80
53514;BME280;39768;54.148;12.174;2023-03-24T17:09:35;99825.69;;;17.08;46.29
53514;BME280;39768;54.148;12.174;2023-03-24T17:13:37;99825.13;;;16.86;46.10
53514;BME280;39768;54.148;12.174;2023-03-24T17:17:38;99836.38;;;17.41;45.42
53514;BME280;39768;54.148;12.174;2023-03-24T17:21:43;99848.34;;;17.03;46.29
53514;BME280;39768;54.148;12.174;2023-03-24T17:25:47;99845.78;;;16.84;47.31
53514;BME280;39768;54.148;12.174;2023-03-24T17:29:48;99842.34;;;16.65;47.75
53514;BME280;39768;54.148;12.174;2023-03-24T17:33:50;99845.47;;;16.90;47.43
53514;BME280;39768;54.148;12.174;2023-03-24T17:37:51;99858.06;;;17.05;46.74
53514;BME280;39768;54.148;12.174;2023-03-24T17:41:53;99850.63;;;16.60;47.78
53514;BME280;39768;54.148;12.174;2023-03-24T17:45:58;99853.41;;;16.76;48.06
53514;BME280;39768;54.148;12.174;2023-03-24T17:50:01;99853.91;;;16.48;49.45
53514;BME280;39768;54.148;12.174;2023-03-24T17:54:04;99849.75;;;16.08;50.32
53514;BME280;39768;54.148;12.174;2023-03-24T17:58:06;99851.50;;;16.26;50.46
53514;BME280;39768;54.148;12.174;2023-03-24T18:02:11;99849.28;;;16.34;50.11
53514;BME280;39768;54.148;12.174;2023-03-24T18:06:13;99847.09;;;16.25;50.73
53514;BME280;39768;54.148;12.174;2023-03-24T18:10:16;99842.84;;;15.68;52.98
53514;BME280;39768;54.148;12.174;2023-03-24T18:14:18;99841.19;;;15.65;52.75
53514;BME280;39768;54.148;12.174;2023-03-24T18:18:20;99846.16;;;15.54;54.24
53514;BME280;39768;54.148;12.174;2023-03-24T18:22:21;99841.03;;;15.31;55.38
53514;BME280;39768;54.148;12.174;2023-03-24T18:26:24;99851.50;;;15.35;55.63
53514;BME280;39768;54.148;12.174;2023-03-24T18:30:26;99855.19;;;15.33;55.22
53514;BME280;39768;54.148;12.174;2023-03-24T18:34:27;99853.47;;;15.32;55.19
53514;BME280;39768;54.148;12.174;2023-03-24T18:38:31;99848.19;;;15.11;55.35
53514;BME280;39768;54.148;12.174;2023-03-24T18:42:33;99848.41;;;14.68;57.91
53514;BME280;39768;54.148;12.174;2023-03-24T18:46:34;99848.47;;;15.05;55.91
53514;BME280;39768;54.148;12.174;2023-03-24T18:50:38;99854.25;;;15.15;55.53
53514;BME280;39768;54.148;12.174;2023-03-24T18:54:39;99858.41;;;14.83;57.12
53514;BME280;39768;54.148;12.174;2023-03-24T18:58:41;99857.81;;;14.76;58.37
53514;BME280;39768;54.148;12.174;2023-03-24T19:02:46;99849.13;;;14.71;58.85
53514;BME280;39768;54.148;12.174;2023-03-24T19:06:47;99866.38;;;15.03;58.10
53514;BME280;39768;54.148;12.174;2023-03-24T19:10:53;99861.97;;;14.84;58.11
53514;BME280;39768;54.148;12.174;2023-03-24T19:14:55;99864.56;;;14.24;66.16
53514;BME280;39768;54.148;12.174;2023-03-24T19:18:56;99861.13;;;14.21;69.63
53514;BME280;39768;54.148;12.174;2023-03-24T19:23:01;99870.38;;;14.74;64.41
53514;BME280;39768;54.148;12.174;2023-03-24T19:27:02;99870.03;;;14.41;69.47
53514;BME280;39768;54.148;12.174;2023-03-24T19:31:06;99870.16;;;14.38;69.15
53514;BME280;39768;54.148;12.174;2023-03-24T19:35:09;99872.03;;;14.57;67.49
53514;BME280;39768;54.148;12.174;2023-03-24T19:39:11;99865.25;;;15.09;64.41
53514;BME280;39768;54.148;12.174;2023-03-24T19:43:16;99865.34;;;14.87;62.85
53514;BME280;39768;54.148;12.174;2023-03-24T19:47:18;99868.94;;;14.86;59.97
53514;BME280;39768;54.148;12.174;2023-03-24T19:51:19;99851.53;;;14.37;60.80
53514;BME280;39768;54.148;12.174;2023-03-24T19:55:21;99861.84;;;14.46;58.94
53514;BME280;39768;54.148;12.174;2023-03-24T19:59:22;99866.22;;;14.88;56.86
53514;BME280;39768;54.148;12.174;2023-03-24T20:03:24;99856.81;;;14.79;56.31
53514;BME280;39768;54.148;12.174;2023-03-24T20:07:27;99856.81;;;14.79;57.75
53514;BME280;39768;54.148;12.174;2023-03-24T20:11:28;99855.22;;;14.75;57.84
53514;BME280;39768;54.148;12.174;2023-03-24T20:15:31;99866.31;;;15.05;58.61
53514;BME280;39768;54.148;12.174;2023-03-24T20:19:32;99857.84;;;14.95;59.95
53514;BME280;39768;54.148;12.174;2023-03-24T20:23:33;99848.31;;;14.90;59.45
53514;BME280;39768;54.148;12.174;2023-03-24T20:27:35;99852.34;;;14.79;62.80
53514;BME280;39768;54.148;12.174;2023-03-24T20:31:37;99840.19;;;14.72;63.71
53514;BME280;39768;54.148;12.174;2023-03-24T20:35:42;99847.56;;;14.67;65.85
53514;BME280;39768;54.148;12.174;2023-03-24T20:39:44;99842.28;;;14.66;66.68
53514;BME280;39768;54.148;12.174;2023-03-24T20:43:46;99842.91;;;14.71;65.62
53514;BME280;39768;54.148;12.174;2023-03-24T20:47:48;99845.41;;;14.55;67.41
53514;BME280;39768;54.148;12.174;2023-03-24T20:51:49;99847.88;;;14.60;68.42
53514;BME280;39768;54.148;12.174;2023-03-24T20:55:58;99847.88;;;14.80;66.88
53514;BME280;39768;54.148;12.174;2023-03-24T21:00:01;99842.28;;;14.45;69.38
53514;BME280;39768;54.148;12.174;2023-03-24T21:04:03;99845.38;;;14.15;70.27
53514;BME280;39768;54.148;12.174;2023-03-24T21:08:09;99841.81;;;14.95;68.11
53514;BME280;39768;54.148;12.174;2023-03-24T21:12:11;99839.19;;;14.75;70.38
53514;BME280;39768;54.148;12.174;2023-03-24T21:16:12;99849.28;;;14.68;71.15
53514;BME280;39768;54.148;12.174;2023-03-24T21:20:14;99854.41;;;14.73;71.10
53514;BME280;39768;54.148;12.174;2023-03-24T21:24:16;99847.38;;;14.70;72.47
53514;BME280;39768;54.148;12.174;2023-03-24T21:28:18;99848.28;;;14.51;72.43
53514;BME280;39768;54.148;12.174;2023-03-24T21:32:19;99855.53;;;14.88;71.90
53514;BME280;39768;54.148;12.174;2023-03-24T21:36:23;99848.06;;;14.55;74.51
53514;BME280;39768;54.148;12.174;2023-03-24T21:40:25;99842.59;;;13.96;79.76
53514;BME280;39768;54.148;12.174;2023-03-24T21:44:26;99839.84;;;14.19;78.12
53514;BME280;39768;54.148;12.174;2023-03-24T21:48:29;99837.78;;;13.84;79.87
53514;BME280;39768;54.148;12.174;2023-03-24T21:52:33;99850.41;;;14.22;79.98
53514;BME280;39768;54.148;12.174;2023-03-24T21:56:39;99852.25;;;14.20;80.13
53514;BME280;39768;54.148;12.174;2023-03-24T22:00:43;99850.53;;;14.19;78.29
53514;BME280;39768;54.148;12.174;2023-03-24T22:04:45;99854.88;;;14.22;79.15
53514;BME280;39768;54.148;12.174;2023-03-24T22:08:49;99849.91;;;14.12;79.63
53514;BME280;39768;54.148;12.174;2023-03-24T22:12:55;99853.06;;;14.22;78.90
53514;BME280;39768;54.148;12.174;2023-03-24T22:16:56;99850.31;;;14.03;80.79
53514;BME280;39768;54.148;12.174;2023-03-24T22:21:03;99848.84;;;13.74;83.54
53514;BME280;39768;54.148;12.174;2023-03-24T22:25:09;99851.00;;;14.08;79.87
53514;BME280;39768;54.148;12.174;2023-03-24T22:29:11;99837.31;;;13.74;83.52
53514;BME280;39768;54.148;12.174;2023-03-24T22:33:12;99844.97;;;14.03;82.75
53514;BME280;39768;54.148;12.174;2023-03-24T22:37:14;99839.28;;;13.91;83.65
53514;BME280;39768;54.148;12.174;2023-03-24T22:41:16;99839.00;;;13.76;82.34
53514;BME280;39768;54.148;12.174;2023-03-24T22:45:18;99840.84;;;13.53;82.85
53514;BME280;39768;54.148;12.174;2023-03-24T22:49:19;99841.59;;;13.78;84.42
53514;BME280;39768;54.148;12.174;2023-03-24T22:53:21;99838.09;;;14.18;80.87
53514;BME280;39768;54.148;12.174;2023-03-24T22:57:23;99843.50;;;13.74;82.98
53514;BME280;39768;54.148;12.174;2023-03-24T23:01:24;99849.72;;;13.75;85.86
53514;BME280;39768;54.148;12.174;2023-03-24T23:05:26;99844.97;;;13.82;82.68